sensor_id;sensor_type;location;lat;lon;timestamp;P1;durP1;ratioP1;P2;durP2;ratioP2
22429;SDS011;11382;48.086;11.632;2022-10-01T00:02:16;5.97;;;5.38;;
22429;SDS011;11382;48.086;11.632;2022-10-01T00:04:44;8.15;;;6.28;;
22429;SDS011;11382;48.086;11.632;2022-10-01T00:07:12;8.20;;;6.40;;
22429;SDS011;11382;48.086;11.632;2022-10-01T00:09:42;7.65;;;6.43;;
22429;SDS011;11382;48.086;11.632;2022-10-01T00:12:10;8.02;;;6.45;;
22429;SDS011;11382;48.086;11.632;2022-10-01T00:14:41;7.72;;;5.97;;
22429;SDS011;11382;48.086;11.632;2022-10-01T00:17:09;6.82;;;6.03;;
22429;SDS011;11382;48.086;11.632;2022-10-01T00:19:37;7.55;;;6.13;;
22429;SDS011;11382;48.086;11.632;2022-10-01T00:22:05;8.02;;;6.57;;
22429;SDS011;11382;48.086;11.632;2022-10-01T00:24:33;7.50;;;6.40;;
22429;SDS011;11382;48.086;11.632;2022-10-01T00:27:04;7.72;;;6.18;;
22429;SDS011;11382;48.086;11.632;2022-10-01T00:29:32;7.18;;;6.38;;
22429;SDS011;11382;48.086;11.632;2022-10-01T00:32:00;7.63;;;6.10;;
22429;SDS011;11382;48.086;11.632;2022-10-01T00:34:28;7.07;;;5.72;;
22429;SDS011;11382;48.086;11.632;2022-10-01T00:36:57;7.55;;;5.43;;
22429;SDS011;11382;48.086;11.632;2022-10-01T00:39:24;6.25;;;5.40;;
22429;SDS011;11382;48.086;11.632;2022-10-01T00:41:52;7.05;;;5.68;;
22429;SDS011;11382;48.086;11.632;2022-10-01T00:44:27;6.60;;;5.80;;
22429;SDS011;11382;48.086;11.632;2022-10-01T00:46:59;7.63;;;5.57;;
22429;SDS011;11382;48.086;11.632;2022-10-01T00:49:34;7.15;;;5.57;;
22429;SDS011;11382;48.086;11.632;2022-10-01T00:52:04;7.30;;;5.70;;
22429;SDS011;11382;48.086;11.632;2022-10-01T00:54:36;7.35;;;5.88;;
22429;SDS011;11382;48.086;11.632;2022-10-01T00:57:09;9.45;;;6.57;;
22429;SDS011;11382;48.086;11.632;2022-10-01T00:59:39;10.95;;;6.95;;
22429;SDS011;11382;48.086;11.632;2022-10-01T01:02:07;8.80;;;6.72;;
22429;SDS011;11382;48.086;11.632;2022-10-01T01:04:36;11.35;;;7.93;;
22429;SDS011;11382;48.086;11.632;2022-10-01T01:07:05;10.95;;;8.40;;
22429;SDS011;11382;48.086;11.632;2022-10-01T01:09:35;11.68;;;8.52;;
22429;SDS011;11382;48.086;11.632;2022-10-01T01:12:06;9.68;;;8.15;;
22429;SDS011;11382;48.086;11.632;2022-10-01T01:14:47;11.48;;;9.32;;
22429;SDS011;11382;48.086;11.632;2022-10-01T01:17:22;13.30;;;9.50;;
22429;SDS011;11382;48.086;11.632;2022-10-01T01:20:00;11.88;;;8.70;;
22429;SDS011;11382;48.086;11.632;2022-10-01T01:22:40;11.68;;;9.00;;
22429;SDS011;11382;48.086;11.632;2022-10-01T01:25:16;11.52;;;9.13;;
22429;SDS011;11382;48.086;11.632;2022-10-01T01:27:47;12.57;;;9.18;;
22429;SDS011;11382;48.086;11.632;2022-10-01T01:30:26;11.65;;;9.05;;
22429;SDS011;11382;48.086;11.632;2022-10-01T01:32:56;11.55;;;8.48;;
22429;SDS011;11382;48.086;11.632;2022-10-01T01:35:29;10.88;;;8.60;;
22429;SDS011;11382;48.086;11.632;2022-10-01T01:38:02;10.10;;;8.03;;
22429;SDS011;11382;48.086;11.632;2022-10-01T01:40:33;9.18;;;7.65;;
22429;SDS011;11382;48.086;11.632;2022-10-01T01:43:06;9.63;;;7.80;;
22429;SDS011;11382;48.086;11.632;2022-10-01T01:45:37;9.10;;;7.07;;
22429;SDS011;11382;48.086;11.632;2022-10-01T01:48:06;8.40;;;6.93;;
22429;SDS011;11382;48.086;11.632;2022-10-01T01:50:39;7.95;;;6.90;;
22429;SDS011;11382;48.086;11.632;2022-10-01T01:55:40;8.57;;;6.05;;
22429;SDS011;11382;48.086;11.632;2022-10-01T01:58:10;8.50;;;7.03;;
22429;SDS011;11382;48.086;11.632;2022-10-01T02:00:39;8.10;;;6.40;;
22429;SDS011;11382;48.086;11.632;2022-10-01T02:03:07;9.70;;;6.55;;
22429;SDS011;11382;48.086;11.632;2022-10-01T02:05:38;7.00;;;6.03;;
22429;SDS011;11382;48.086;11.632;2022-10-01T02:11:15;7.75;;;5.70;;
22429;SDS011;11382;48.086;11.632;2022-10-01T02:13:56;9.32;;;6.32;;
22429;SDS011;11382;48.086;11.632;2022-10-01T02:16:31;7.68;;;6.70;;
22429;SDS011;11382;48.086;11.632;2022-10-01T02:19:09;9.82;;;7.13;;
22429;SDS011;11382;48.086;11.632;2022-10-01T02:21:45;8.85;;;7.00;;
22429;SDS011;11382;48.086;11.632;2022-10-01T02:24:22;10.40;;;7.13;;
22429;SDS011;11382;48.086;11.632;2022-10-01T02:26:53;9.38;;;7.43;;
22429;SDS011;11382;48.086;11.632;2022-10-01T02:29:24;10.73;;;7.70;;
22429;SDS011;11382;48.086;11.632;2022-10-01T02:31:53;10.23;;;7.95;;
22429;SDS011;11382;48.086;11.632;2022-10-01T02:34:24;12.85;;;9.68;;
22429;SDS011;11382;48.086;11.632;2022-10-01T02:36:56;13.50;;;9.33;;
22429;SDS011;11382;48.086;11.632;2022-10-01T02:39:27;13.80;;;9.02;;
22429;SDS011;11382;48.086;11.632;2022-10-01T02:41:56;13.50;;;9.45;;
22429;SDS011;11382;48.086;11.632;2022-10-01T02:44:28;12.02;;;9.50;;
22429;SDS011;11382;48.086;11.632;2022-10-01T02:47:03;13.10;;;9.18;;
22429;SDS011;11382;48.086;11.632;2022-10-01T02:49:34;13.55;;;9.77;;
22429;SDS011;11382;48.086;11.632;2022-10-01T02:52:05;11.38;;;8.15;;
22429;SDS011;11382;48.086;11.632;2022-10-01T02:54:41;9.45;;;8.00;;
22429;SDS011;11382;48.086;11.632;2022-10-01T02:57:16;11.27;;;8.13;;
22429;SDS011;11382;48.086;11.632;2022-10-01T02:59:54;10.00;;;7.60;;
22429;SDS011;11382;48.086;11.632;2022-10-01T03:02:24;13.68;;;8.80;;
22429;SDS011;11382;48.086;11.632;2022-10-01T03:04:54;11.73;;;8.00;;
22429;SDS011;11382;48.086;11.632;2022-10-01T03:07:22;9.50;;;7.57;;
22429;SDS011;11382;48.086;11.632;2022-10-01T03:09:51;11.60;;;8.38;;
22429;SDS011;11382;48.086;11.632;2022-10-01T03:12:19;10.20;;;8.38;;
22429;SDS011;11382;48.086;11.632;2022-10-01T03:14:47;10.50;;;7.55;;
22429;SDS011;11382;48.086;11.632;2022-10-01T03:17:17;14.15;;;8.57;;
22429;SDS011;11382;48.086;11.632;2022-10-01T03:19:46;11.10;;;7.63;;
22429;SDS011;11382;48.086;11.632;2022-10-01T03:22:15;11.05;;;8.07;;
22429;SDS011;11382;48.086;11.632;2022-10-01T03:24:46;12.32;;;7.65;;
22429;SDS011;11382;48.086;11.632;2022-10-01T03:27:14;11.38;;;8.43;;
22429;SDS011;11382;48.086;11.632;2022-10-01T03:29:42;14.75;;;9.77;;
22429;SDS011;11382;48.086;11.632;2022-10-01T03:32:11;17.70;;;11.20;;
22429;SDS011;11382;48.086;11.632;2022-10-01T03:34:40;14.80;;;11.23;;
22429;SDS011;11382;48.086;11.632;2022-10-01T03:37:08;15.07;;;11.23;;
22429;SDS011;11382;48.086;11.632;2022-10-01T03:39:37;19.70;;;12.80;;
22429;SDS011;11382;48.086;11.632;2022-10-01T03:42:05;22.52;;;11.48;;
22429;SDS011;11382;48.086;11.632;2022-10-01T03:44:33;16.85;;;11.68;;
22429;SDS011;11382;48.086;11.632;2022-10-01T03:47:01;16.05;;;10.57;;
22429;SDS011;11382;48.086;11.632;2022-10-01T03:49:29;15.10;;;11.20;;
22429;SDS011;11382;48.086;11.632;2022-10-01T03:51:58;16.73;;;12.05;;
22429;SDS011;11382;48.086;11.632;2022-10-01T03:54:26;16.85;;;11.13;;
22429;SDS011;11382;48.086;11.632;2022-10-01T03:56:55;17.15;;;12.43;;
22429;SDS011;11382;48.086;11.632;2022-10-01T03:59:24;17.63;;;12.80;;
22429;SDS011;11382;48.086;11.632;2022-10-01T04:01:52;16.98;;;12.32;;
22429;SDS011;11382;48.086;11.632;2022-10-01T04:04:20;18.88;;;12.82;;
22429;SDS011;11382;48.086;11.632;2022-10-01T04:06:48;21.40;;;12.65;;
22429;SDS011;11382;48.086;11.632;2022-10-01T04:09:18;15.75;;;11.48;;
22429;SDS011;11382;48.086;11.632;2022-10-01T04:11:45;15.95;;;11.93;;
22429;SDS011;11382;48.086;11.632;2022-10-01T04:14:13;19.20;;;11.75;;
22429;SDS011;11382;48.086;11.632;2022-10-01T04:16:41;15.65;;;11.00;;
22429;SDS011;11382;48.086;11.632;2022-10-01T04:19:10;15.05;;;10.48;;
22429;SDS011;11382;48.086;11.632;2022-10-01T04:21:38;15.60;;;11.07;;
22429;SDS011;11382;48.086;11.632;2022-10-01T04:24:07;14.73;;;10.25;;
22429;SDS011;11382;48.086;11.632;2022-10-01T04:26:36;15.40;;;10.40;;
22429;SDS011;11382;48.086;11.632;2022-10-01T04:29:04;12.68;;;8.93;;
22429;SDS011;11382;48.086;11.632;2022-10-01T04:31:32;15.32;;;9.93;;
22429;SDS011;11382;48.086;11.632;2022-10-01T04:34:01;13.55;;;9.20;;
22429;SDS011;11382;48.086;11.632;2022-10-01T04:36:30;14.35;;;8.80;;
22429;SDS011;11382;48.086;11.632;2022-10-01T04:38:58;12.15;;;9.70;;
22429;SDS011;11382;48.086;11.632;2022-10-01T04:41:28;15.02;;;9.95;;
22429;SDS011;11382;48.086;11.632;2022-10-01T04:43:58;17.30;;;10.07;;
22429;SDS011;11382;48.086;11.632;2022-10-01T04:46:27;14.60;;;9.35;;
22429;SDS011;11382;48.086;11.632;2022-10-01T04:48:55;14.48;;;9.07;;
22429;SDS011;11382;48.086;11.632;2022-10-01T04:51:23;14.93;;;8.27;;
22429;SDS011;11382;48.086;11.632;2022-10-01T04:53:52;12.15;;;8.60;;
22429;SDS011;11382;48.086;11.632;2022-10-01T04:56:20;12.02;;;9.05;;
22429;SDS011;11382;48.086;11.632;2022-10-01T04:58:48;12.52;;;8.88;;
22429;SDS011;11382;48.086;11.632;2022-10-01T05:01:18;12.85;;;9.85;;
22429;SDS011;11382;48.086;11.632;2022-10-01T05:03:46;15.20;;;10.05;;
22429;SDS011;11382;48.086;11.632;2022-10-01T05:06:14;15.45;;;11.43;;
22429;SDS011;11382;48.086;11.632;2022-10-01T05:08:42;18.40;;;11.43;;
22429;SDS011;11382;48.086;11.632;2022-10-01T05:11:10;14.65;;;10.20;;
22429;SDS011;11382;48.086;11.632;2022-10-01T05:13:39;14.50;;;10.25;;
22429;SDS011;11382;48.086;11.632;2022-10-01T05:16:08;14.13;;;10.35;;
22429;SDS011;11382;48.086;11.632;2022-10-01T05:18:38;14.65;;;10.52;;
22429;SDS011;11382;48.086;11.632;2022-10-01T05:21:06;12.50;;;9.32;;
22429;SDS011;11382;48.086;11.632;2022-10-01T05:23:35;12.98;;;9.75;;
22429;SDS011;11382;48.086;11.632;2022-10-01T05:26:03;12.40;;;8.60;;
22429;SDS011;11382;48.086;11.632;2022-10-01T05:28:31;12.30;;;8.40;;
22429;SDS011;11382;48.086;11.632;2022-10-01T05:31:00;10.32;;;8.40;;
22429;SDS011;11382;48.086;11.632;2022-10-01T05:33:29;10.85;;;8.65;;
22429;SDS011;11382;48.086;11.632;2022-10-01T05:36:00;13.27;;;8.68;;
22429;SDS011;11382;48.086;11.632;2022-10-01T05:38:32;12.60;;;8.77;;
22429;SDS011;11382;48.086;11.632;2022-10-01T05:41:02;12.13;;;8.60;;
22429;SDS011;11382;48.086;11.632;2022-10-01T05:43:30;10.38;;;7.93;;
22429;SDS011;11382;48.086;11.632;2022-10-01T05:45:59;11.93;;;7.65;;
22429;SDS011;11382;48.086;11.632;2022-10-01T05:48:28;11.18;;;7.78;;
22429;SDS011;11382;48.086;11.632;2022-10-01T05:51:00;11.85;;;8.05;;
22429;SDS011;11382;48.086;11.632;2022-10-01T05:53:29;10.07;;;7.78;;
22429;SDS011;11382;48.086;11.632;2022-10-01T05:55:57;10.93;;;7.63;;
22429;SDS011;11382;48.086;11.632;2022-10-01T05:58:28;10.52;;;7.93;;
22429;SDS011;11382;48.086;11.632;2022-10-01T06:00:56;13.02;;;7.30;;
22429;SDS011;11382;48.086;11.632;2022-10-01T06:03:24;9.90;;;7.32;;
22429;SDS011;11382;48.086;11.632;2022-10-01T06:05:54;9.43;;;6.70;;
22429;SDS011;11382;48.086;11.632;2022-10-01T06:08:23;9.65;;;7.30;;
22429;SDS011;11382;48.086;11.632;2022-10-01T06:10:57;9.57;;;6.68;;
22429;SDS011;11382;48.086;11.632;2022-10-01T06:13:26;9.18;;;6.68;;
22429;SDS011;11382;48.086;11.632;2022-10-01T06:15:54;12.10;;;6.80;;
22429;SDS011;11382;48.086;11.632;2022-10-01T06:18:22;9.95;;;6.38;;
22429;SDS011;11382;48.086;11.632;2022-10-01T06:20:50;7.93;;;6.30;;
22429;SDS011;11382;48.086;11.632;2022-10-01T06:23:18;9.88;;;6.65;;
22429;SDS011;11382;48.086;11.632;2022-10-01T06:25:47;7.50;;;5.97;;
22429;SDS011;11382;48.086;11.632;2022-10-01T06:28:15;8.13;;;6.35;;
22429;SDS011;11382;48.086;11.632;2022-10-01T06:30:44;10.68;;;6.07;;
22429;SDS011;11382;48.086;11.632;2022-10-01T06:33:13;11.95;;;5.93;;
22429;SDS011;11382;48.086;11.632;2022-10-01T06:35:43;8.15;;;6.20;;
22429;SDS011;11382;48.086;11.632;2022-10-01T06:38:13;8.70;;;5.85;;
22429;SDS011;11382;48.086;11.632;2022-10-01T06:40:42;8.25;;;5.95;;
22429;SDS011;11382;48.086;11.632;2022-10-01T06:43:11;8.75;;;5.82;;
22429;SDS011;11382;48.086;11.632;2022-10-01T06:45:40;8.95;;;6.68;;
22429;SDS011;11382;48.086;11.632;2022-10-01T06:48:09;8.65;;;6.32;;
22429;SDS011;11382;48.086;11.632;2022-10-01T06:50:41;8.50;;;6.03;;
22429;SDS011;11382;48.086;11.632;2022-10-01T06:53:10;7.95;;;6.18;;
22429;SDS011;11382;48.086;11.632;2022-10-01T06:55:38;6.90;;;6.20;;
22429;SDS011;11382;48.086;11.632;2022-10-01T06:58:09;9.20;;;5.97;;
22429;SDS011;11382;48.086;11.632;2022-10-01T07:00:42;7.00;;;5.50;;
22429;SDS011;11382;48.086;11.632;2022-10-01T07:03:12;6.40;;;5.47;;
22429;SDS011;11382;48.086;11.632;2022-10-01T07:05:41;6.85;;;5.50;;
22429;SDS011;11382;48.086;11.632;2022-10-01T07:08:09;7.10;;;4.93;;
22429;SDS011;11382;48.086;11.632;2022-10-01T07:10:38;6.20;;;5.07;;
22429;SDS011;11382;48.086;11.632;2022-10-01T07:13:07;6.95;;;5.20;;
22429;SDS011;11382;48.086;11.632;2022-10-01T07:15:38;5.40;;;4.50;;
22429;SDS011;11382;48.086;11.632;2022-10-01T07:18:08;6.25;;;4.93;;
22429;SDS011;11382;48.086;11.632;2022-10-01T07:20:37;7.90;;;4.70;;
22429;SDS011;11382;48.086;11.632;2022-10-01T07:23:06;6.13;;;4.90;;
22429;SDS011;11382;48.086;11.632;2022-10-01T07:25:38;5.30;;;4.40;;
22429;SDS011;11382;48.086;11.632;2022-10-01T07:28:07;6.65;;;4.70;;
22429;SDS011;11382;48.086;11.632;2022-10-01T07:30:44;5.28;;;4.28;;
22429;SDS011;11382;48.086;11.632;2022-10-01T07:33:16;4.40;;;4.00;;
22429;SDS011;11382;48.086;11.632;2022-10-01T07:35:45;8.10;;;5.38;;
22429;SDS011;11382;48.086;11.632;2022-10-01T07:38:13;4.13;;;3.63;;
22429;SDS011;11382;48.086;11.632;2022-10-01T07:40:41;4.72;;;4.15;;
22429;SDS011;11382;48.086;11.632;2022-10-01T07:43:11;6.88;;;4.72;;
22429;SDS011;11382;48.086;11.632;2022-10-01T07:45:39;5.18;;;4.50;;
22429;SDS011;11382;48.086;11.632;2022-10-01T07:48:09;4.50;;;3.72;;
22429;SDS011;11382;48.086;11.632;2022-10-01T07:50:37;4.38;;;3.30;;
22429;SDS011;11382;48.086;11.632;2022-10-01T07:53:05;4.32;;;3.40;;
22429;SDS011;11382;48.086;11.632;2022-10-01T07:55:33;4.38;;;3.78;;
22429;SDS011;11382;48.086;11.632;2022-10-01T07:58:01;5.85;;;3.20;;
22429;SDS011;11382;48.086;11.632;2022-10-01T08:00:31;4.47;;;3.40;;
22429;SDS011;11382;48.086;11.632;2022-10-01T08:03:00;4.25;;;3.13;;
22429;SDS011;11382;48.086;11.632;2022-10-01T08:05:30;4.13;;;2.72;;
22429;SDS011;11382;48.086;11.632;2022-10-01T08:07:59;2.58;;;2.30;;
22429;SDS011;11382;48.086;11.632;2022-10-01T08:10:29;3.15;;;2.75;;
22429;SDS011;11382;48.086;11.632;2022-10-01T08:13:01;3.10;;;2.55;;
22429;SDS011;11382;48.086;11.632;2022-10-01T08:18:02;2.53;;;2.25;;
22429;SDS011;11382;48.086;11.632;2022-10-01T08:20:31;2.38;;;1.92;;
22429;SDS011;11382;48.086;11.632;2022-10-01T08:23:00;2.25;;;1.92;;
22429;SDS011;11382;48.086;11.632;2022-10-01T08:25:29;1.88;;;1.70;;
22429;SDS011;11382;48.086;11.632;2022-10-01T08:27:57;1.80;;;1.60;;
22429;SDS011;11382;48.086;11.632;2022-10-01T08:30:27;2.63;;;1.67;;
22429;SDS011;11382;48.086;11.632;2022-10-01T08:32:55;2.58;;;1.70;;
22429;SDS011;11382;48.086;11.632;2022-10-01T08:35:25;1.77;;;1.67;;
22429;SDS011;11382;48.086;11.632;2022-10-01T08:37:59;2.40;;;1.70;;
22429;SDS011;11382;48.086;11.632;2022-10-01T08:40:27;1.55;;;1.45;;
22429;SDS011;11382;48.086;11.632;2022-10-01T08:42:56;2.70;;;2.30;;
22429;SDS011;11382;48.086;11.632;2022-10-01T08:45:27;2.50;;;2.08;;
22429;SDS011;11382;48.086;11.632;2022-10-01T08:48:02;3.33;;;2.10;;
22429;SDS011;11382;48.086;11.632;2022-10-01T08:53:09;4.00;;;1.90;;
22429;SDS011;11382;48.086;11.632;2022-10-01T08:55:40;2.00;;;1.70;;
22429;SDS011;11382;48.086;11.632;2022-10-01T08:58:11;1.77;;;1.67;;
22429;SDS011;11382;48.086;11.632;2022-10-01T09:00:43;2.70;;;1.90;;
22429;SDS011;11382;48.086;11.632;2022-10-01T09:03:12;1.95;;;1.67;;
22429;SDS011;11382;48.086;11.632;2022-10-01T09:05:46;1.70;;;1.40;;
22429;SDS011;11382;48.086;11.632;2022-10-01T09:08:29;2.40;;;1.50;;
22429;SDS011;11382;48.086;11.632;2022-10-01T09:11:15;1.73;;;1.63;;
22429;SDS011;11382;48.086;11.632;2022-10-01T09:14:09;1.98;;;1.30;;
22429;SDS011;11382;48.086;11.632;2022-10-01T09:16:46;2.25;;;1.10;;
22429;SDS011;11382;48.086;11.632;2022-10-01T09:19:28;1.25;;;1.10;;
22429;SDS011;11382;48.086;11.632;2022-10-01T09:22:21;1.17;;;1.08;;
22429;SDS011;11382;48.086;11.632;2022-10-01T09:24:56;1.40;;;1.30;;
22429;SDS011;11382;48.086;11.632;2022-10-01T09:27:29;1.35;;;1.25;;
22429;SDS011;11382;48.086;11.632;2022-10-01T09:29:58;1.33;;;1.20;;
22429;SDS011;11382;48.086;11.632;2022-10-01T09:32:29;2.50;;;1.40;;
22429;SDS011;11382;48.086;11.632;2022-10-01T09:35:02;3.35;;;2.10;;
22429;SDS011;11382;48.086;11.632;2022-10-01T09:37:43;2.67;;;1.90;;
22429;SDS011;11382;48.086;11.632;2022-10-01T09:40:19;2.88;;;1.50;;
22429;SDS011;11382;48.086;11.632;2022-10-01T09:42:53;2.28;;;1.20;;
22429;SDS011;11382;48.086;11.632;2022-10-01T09:45:21;1.73;;;1.30;;
22429;SDS011;11382;48.086;11.632;2022-10-01T09:47:51;1.73;;;1.35;;
22429;SDS011;11382;48.086;11.632;2022-10-01T09:50:36;4.47;;;1.30;;
22429;SDS011;11382;48.086;11.632;2022-10-01T09:53:11;1.63;;;1.40;;
22429;SDS011;11382;48.086;11.632;2022-10-01T09:55:44;1.58;;;1.40;;
22429;SDS011;11382;48.086;11.632;2022-10-01T09:58:19;1.77;;;1.35;;
22429;SDS011;11382;48.086;11.632;2022-10-01T10:00:49;1.42;;;1.33;;
22429;SDS011;11382;48.086;11.632;2022-10-01T10:03:22;3.22;;;1.38;;
22429;SDS011;11382;48.086;11.632;2022-10-01T10:05:52;4.07;;;1.75;;
22429;SDS011;11382;48.086;11.632;2022-10-01T10:08:23;3.72;;;1.73;;
22429;SDS011;11382;48.086;11.632;2022-10-01T10:10:57;1.60;;;1.30;;
22429;SDS011;11382;48.086;11.632;2022-10-01T10:13:28;1.40;;;1.30;;
22429;SDS011;11382;48.086;11.632;2022-10-01T10:16:05;1.27;;;1.13;;
22429;SDS011;11382;48.086;11.632;2022-10-01T10:18:36;2.05;;;1.25;;
22429;SDS011;11382;48.086;11.632;2022-10-01T10:21:06;1.98;;;1.35;;
22429;SDS011;11382;48.086;11.632;2022-10-01T10:23:48;1.70;;;1.40;;
22429;SDS011;11382;48.086;11.632;2022-10-01T10:26:20;1.85;;;1.20;;
22429;SDS011;11382;48.086;11.632;2022-10-01T10:28:53;2.70;;;1.40;;
22429;SDS011;11382;48.086;11.632;2022-10-01T10:31:23;2.70;;;1.13;;
22429;SDS011;11382;48.086;11.632;2022-10-01T10:33:53;2.58;;;1.30;;
22429;SDS011;11382;48.086;11.632;2022-10-01T10:36:27;1.92;;;1.30;;
22429;SDS011;11382;48.086;11.632;2022-10-01T10:38:56;2.53;;;1.60;;
22429;SDS011;11382;48.086;11.632;2022-10-01T10:41:26;1.90;;;1.33;;
22429;SDS011;11382;48.086;11.632;2022-10-01T10:43:56;3.55;;;1.50;;
22429;SDS011;11382;48.086;11.632;2022-10-01T10:46:29;1.33;;;1.23;;
22429;SDS011;11382;48.086;11.632;2022-10-01T10:49:01;1.05;;;1.00;;
22429;SDS011;11382;48.086;11.632;2022-10-01T10:51:41;2.67;;;1.30;;
22429;SDS011;11382;48.086;11.632;2022-10-01T10:54:17;1.63;;;1.40;;
22429;SDS011;11382;48.086;11.632;2022-10-01T10:56:52;2.60;;;1.40;;
22429;SDS011;11382;48.086;11.632;2022-10-01T10:59:22;2.45;;;1.17;;
22429;SDS011;11382;48.086;11.632;2022-10-01T11:01:50;1.83;;;1.27;;
22429;SDS011;11382;48.086;11.632;2022-10-01T11:04:22;3.28;;;1.30;;
22429;SDS011;11382;48.086;11.632;2022-10-01T11:06:56;1.52;;;1.30;;
22429;SDS011;11382;48.086;11.632;2022-10-01T11:09:28;4.13;;;1.65;;
22429;SDS011;11382;48.086;11.632;2022-10-01T11:12:12;2.70;;;1.65;;
22429;SDS011;11382;48.086;11.632;2022-10-01T11:14:53;5.45;;;1.80;;
22429;SDS011;11382;48.086;11.632;2022-10-01T11:20:37;2.20;;;1.50;;
22429;SDS011;11382;48.086;11.632;2022-10-01T11:23:23;2.08;;;1.50;;
22429;SDS011;11382;48.086;11.632;2022-10-01T11:26:11;3.08;;;1.65;;
22429;SDS011;11382;48.086;11.632;2022-10-01T11:28:49;4.80;;;1.50;;
22429;SDS011;11382;48.086;11.632;2022-10-01T11:31:30;2.72;;;1.58;;
22429;SDS011;11382;48.086;11.632;2022-10-01T11:34:13;2.15;;;1.40;;
22429;SDS011;11382;48.086;11.632;2022-10-01T11:37:08;1.88;;;1.30;;
22429;SDS011;11382;48.086;11.632;2022-10-01T11:39:49;2.05;;;1.50;;
22429;SDS011;11382;48.086;11.632;2022-10-01T11:42:22;1.67;;;1.50;;
22429;SDS011;11382;48.086;11.632;2022-10-01T11:44:58;3.00;;;1.45;;
22429;SDS011;11382;48.086;11.632;2022-10-01T11:47:32;2.97;;;1.50;;
22429;SDS011;11382;48.086;11.632;2022-10-01T11:50:04;1.92;;;1.50;;
22429;SDS011;11382;48.086;11.632;2022-10-01T11:52:40;3.80;;;2.30;;
22429;SDS011;11382;48.086;11.632;2022-10-01T11:55:14;2.92;;;2.10;;
22429;SDS011;11382;48.086;11.632;2022-10-01T11:58:06;4.07;;;2.08;;
22429;SDS011;11382;48.086;11.632;2022-10-01T12:00:59;3.85;;;2.67;;
22429;SDS011;11382;48.086;11.632;2022-10-01T12:03:34;2.78;;;1.80;;
22429;SDS011;11382;48.086;11.632;2022-10-01T12:06:10;2.13;;;1.67;;
22429;SDS011;11382;48.086;11.632;2022-10-01T12:08:41;2.03;;;1.40;;
22429;SDS011;11382;48.086;11.632;2022-10-01T12:11:19;1.40;;;1.17;;
22429;SDS011;11382;48.086;11.632;2022-10-01T12:13:56;1.70;;;1.30;;
22429;SDS011;11382;48.086;11.632;2022-10-01T12:16:32;1.73;;;1.27;;
22429;SDS011;11382;48.086;11.632;2022-10-01T12:19:10;1.88;;;1.40;;
22429;SDS011;11382;48.086;11.632;2022-10-01T12:21:43;2.00;;;1.25;;
22429;SDS011;11382;48.086;11.632;2022-10-01T12:24:17;4.03;;;1.48;;
22429;SDS011;11382;48.086;11.632;2022-10-01T12:26:51;1.83;;;1.20;;
22429;SDS011;11382;48.086;11.632;2022-10-01T12:29:27;2.80;;;1.67;;
22429;SDS011;11382;48.086;11.632;2022-10-01T12:32:06;1.95;;;1.50;;
22429;SDS011;11382;48.086;11.632;2022-10-01T12:34:45;1.40;;;1.15;;
22429;SDS011;11382;48.086;11.632;2022-10-01T12:37:22;2.75;;;1.70;;
22429;SDS011;11382;48.086;11.632;2022-10-01T12:40:01;3.05;;;1.30;;
22429;SDS011;11382;48.086;11.632;2022-10-01T12:42:48;2.80;;;1.40;;
22429;SDS011;11382;48.086;11.632;2022-10-01T12:45:32;1.20;;;1.10;;
22429;SDS011;11382;48.086;11.632;2022-10-01T12:48:13;2.05;;;1.60;;
22429;SDS011;11382;48.086;11.632;2022-10-01T12:50:51;2.08;;;1.30;;
22429;SDS011;11382;48.086;11.632;2022-10-01T12:53:24;2.90;;;1.45;;
22429;SDS011;11382;48.086;11.632;2022-10-01T12:56:00;2.78;;;1.50;;
22429;SDS011;11382;48.086;11.632;2022-10-01T13:01:26;2.08;;;1.60;;
22429;SDS011;11382;48.086;11.632;2022-10-01T13:04:13;1.52;;;1.40;;
22429;SDS011;11382;48.086;11.632;2022-10-01T13:07:04;2.78;;;2.00;;
22429;SDS011;11382;48.086;11.632;2022-10-01T13:09:43;1.65;;;1.40;;
22429;SDS011;11382;48.086;11.632;2022-10-01T13:12:23;1.63;;;1.20;;
22429;SDS011;11382;48.086;11.632;2022-10-01T13:15:06;2.15;;;1.70;;
22429;SDS011;11382;48.086;11.632;2022-10-01T13:17:40;1.70;;;1.58;;
22429;SDS011;11382;48.086;11.632;2022-10-01T13:20:17;2.17;;;1.48;;
22429;SDS011;11382;48.086;11.632;2022-10-01T13:22:55;1.60;;;1.50;;
22429;SDS011;11382;48.086;11.632;2022-10-01T13:25:32;2.33;;;1.80;;
22429;SDS011;11382;48.086;11.632;2022-10-01T13:28:08;4.85;;;1.60;;
22429;SDS011;11382;48.086;11.632;2022-10-01T13:30:45;4.35;;;1.40;;
22429;SDS011;11382;48.086;11.632;2022-10-01T13:33:20;3.20;;;1.73;;
22429;SDS011;11382;48.086;11.632;2022-10-01T13:35:53;2.75;;;1.90;;
22429;SDS011;11382;48.086;11.632;2022-10-01T13:38:28;3.15;;;1.70;;
22429;SDS011;11382;48.086;11.632;2022-10-01T13:41:06;3.10;;;1.92;;
22429;SDS011;11382;48.086;11.632;2022-10-01T13:43:48;6.22;;;2.83;;
22429;SDS011;11382;48.086;11.632;2022-10-01T13:46:22;5.70;;;2.42;;
22429;SDS011;11382;48.086;11.632;2022-10-01T13:48:52;3.65;;;2.30;;
22429;SDS011;11382;48.086;11.632;2022-10-01T13:51:31;6.43;;;3.47;;
22429;SDS011;11382;48.086;11.632;2022-10-01T13:54:01;3.78;;;2.00;;
22429;SDS011;11382;48.086;11.632;2022-10-01T13:56:33;3.78;;;1.77;;
22429;SDS011;11382;48.086;11.632;2022-10-01T13:59:03;4.00;;;2.42;;
22429;SDS011;11382;48.086;11.632;2022-10-01T14:01:46;13.05;;;7.38;;
22429;SDS011;11382;48.086;11.632;2022-10-01T14:04:15;10.20;;;6.13;;
22429;SDS011;11382;48.086;11.632;2022-10-01T14:06:51;3.25;;;2.58;;
22429;SDS011;11382;48.086;11.632;2022-10-01T14:09:21;2.10;;;1.52;;
22429;SDS011;11382;48.086;11.632;2022-10-01T14:11:53;2.55;;;1.30;;
22429;SDS011;11382;48.086;11.632;2022-10-01T14:14:54;4.55;;;2.70;;
22429;SDS011;11382;48.086;11.632;2022-10-01T14:17:41;6.88;;;3.95;;
22429;SDS011;11382;48.086;11.632;2022-10-01T14:20:15;2.95;;;2.50;;
22429;SDS011;11382;48.086;11.632;2022-10-01T14:22:48;1.90;;;1.25;;
22429;SDS011;11382;48.086;11.632;2022-10-01T14:25:28;1.75;;;1.42;;
22429;SDS011;11382;48.086;11.632;2022-10-01T14:28:12;1.05;;;0.95;;
22429;SDS011;11382;48.086;11.632;2022-10-01T14:30:57;1.55;;;1.00;;
22429;SDS011;11382;48.086;11.632;2022-10-01T14:36:30;2.15;;;1.10;;
22429;SDS011;11382;48.086;11.632;2022-10-01T14:39:03;1.17;;;1.00;;
22429;SDS011;11382;48.086;11.632;2022-10-01T14:41:39;1.25;;;1.13;;
22429;SDS011;11382;48.086;11.632;2022-10-01T14:47:11;1.00;;;0.90;;
22429;SDS011;11382;48.086;11.632;2022-10-01T14:49:40;1.20;;;1.10;;
22429;SDS011;11382;48.086;11.632;2022-10-01T14:52:12;3.30;;;1.10;;
22429;SDS011;11382;48.086;11.632;2022-10-01T14:54:47;1.35;;;0.90;;
22429;SDS011;11382;48.086;11.632;2022-10-01T14:57:21;1.27;;;0.93;;
22429;SDS011;11382;48.086;11.632;2022-10-01T14:59:54;1.20;;;1.00;;
22429;SDS011;11382;48.086;11.632;2022-10-01T15:02:25;1.05;;;0.80;;
22429;SDS011;11382;48.086;11.632;2022-10-01T15:04:55;1.38;;;1.10;;
22429;SDS011;11382;48.086;11.632;2022-10-01T15:07:24;1.48;;;0.90;;
22429;SDS011;11382;48.086;11.632;2022-10-01T15:10:05;0.90;;;0.80;;
22429;SDS011;11382;48.086;11.632;2022-10-01T15:12:37;4.18;;;2.00;;
22429;SDS011;11382;48.086;11.632;2022-10-01T15:15:14;5.63;;;3.25;;
22429;SDS011;11382;48.086;11.632;2022-10-01T15:17:46;6.95;;;3.45;;
22429;SDS011;11382;48.086;11.632;2022-10-01T15:20:15;9.90;;;4.82;;
22429;SDS011;11382;48.086;11.632;2022-10-01T15:22:43;20.10;;;7.95;;